createdAt,value
2023-02-13T04:46:31.213Z,5.60
2023-02-13T04:48:57.908Z,5.50
2023-02-13T04:51:24.555Z,5.50
2023-02-13T04:53:51.243Z,5.50
2023-02-13T04:56:19.925Z,5.40
2023-02-13T04:58:46.837Z,5.40
2023-02-13T05:01:15.054Z,5.50
2023-02-13T05:03:42.476Z,5.50
2023-02-13T05:06:09.377Z,5.40
2023-02-13T05:08:36.232Z,5.50
2023-02-13T05:11:03.036Z,5.40
2023-02-13T05:13:29.789Z,5.30
2023-02-13T05:15:56.526Z,5.30
2023-02-13T05:18:23.363Z,5.20
2023-02-13T05:21:10.165Z,5.30
2023-02-13T05:23:37.430Z,5.20
2023-02-13T05:26:04.279Z,5.10
2023-02-13T05:28:49.565Z,5.20
2023-02-13T05:31:16.359Z,5.30
2023-02-13T05:33:43.208Z,5.30
2023-02-13T05:36:09.957Z,5.10
2023-02-13T05:38:36.777Z,5.20
2023-02-13T05:41:03.502Z,5.30
2023-02-13T05:43:30.645Z,5.10
2023-02-13T05:46:08.810Z,5.10
2023-02-13T05:48:36.310Z,5.10
2023-02-13T05:51:03.110Z,5.20
2023-02-13T05:53:29.957Z,5.30
2023-02-13T05:55:57.024Z,5.30
2023-02-13T05:58:23.895Z,5.30
2023-02-13T06:00:50.665Z,5.30
2023-02-13T06:03:17.418Z,5.10
2023-02-13T06:05:44.344Z,5.00
2023-02-13T06:08:10.999Z,5.10
2023-02-13T06:10:37.704Z,5.00
2023-02-13T06:13:04.506Z,4.90
2023-02-13T06:15:31.146Z,5.10
2023-02-13T06:17:57.852Z,5.10
2023-02-13T06:20:24.816Z,5.20
2023-02-13T06:22:51.955Z,5.30
2023-02-13T06:25:19.566Z,5.10
2023-02-13T06:27:46.956Z,5.10
2023-02-13T06:30:14.890Z,5.20
2023-02-13T06:32:41.742Z,5.30
2023-02-13T06:35:09.553Z,5.30
2023-02-13T06:37:36.637Z,5.30
2023-02-13T06:40:03.939Z,5.40
2023-02-13T06:42:30.680Z,5.40
2023-02-13T06:44:57.391Z,5.40
2023-02-13T06:47:24.092Z,5.30
2023-02-13T06:49:50.836Z,5.20
2023-02-13T06:52:17.603Z,5.10
2023-02-13T06:54:47.923Z,5.10
2023-02-13T06:57:16.063Z,5.20
2023-02-13T06:59:43.282Z,5.20
2023-02-13T07:02:11.357Z,5.20
2023-02-13T07:04:38.341Z,5.20
2023-02-13T07:07:05.403Z,5.20
2023-02-13T07:09:32.376Z,5.20
2023-02-13T07:12:02.100Z,5.20
2023-02-13T07:14:28.778Z,5.00
2023-02-13T07:16:55.428Z,4.90
2023-02-13T07:19:22.150Z,5.00
2023-02-13T07:21:49.006Z,5.10
2023-02-13T07:24:15.692Z,5.20
2023-02-13T07:26:42.329Z,5.20
2023-02-13T07:29:11.981Z,5.10
2023-02-13T07:31:39.830Z,5.20
2023-02-13T07:34:06.690Z,5.10
2023-02-13T07:36:33.391Z,5.10
2023-02-13T07:39:00.111Z,5.20
2023-02-13T07:41:27.015Z,5.20
2023-02-13T07:43:54.360Z,5.20
2023-02-13T07:46:21.212Z,5.20
2023-02-13T07:48:47.962Z,5.10
2023-02-13T07:51:14.699Z,5.10
2023-02-13T07:53:41.377Z,5.20
2023-02-13T07:56:09.034Z,5.20
2023-02-13T07:58:36.716Z,5.30
2023-02-13T08:01:11.891Z,5.40
2023-02-13T08:03:39.318Z,5.40
2023-02-13T08:06:07.158Z,5.40
2023-02-13T08:08:34.475Z,5.30
2023-02-13T08:11:30.244Z,5.20
2023-02-13T08:13:56.923Z,5.30
2023-02-13T08:16:23.775Z,5.50
2023-02-13T08:18:50.452Z,5.50
2023-02-13T08:21:17.114Z,5.60
2023-02-13T08:23:43.800Z,5.60
2023-02-13T08:26:11.031Z,5.60
2023-02-13T08:28:38.093Z,5.60
2023-02-13T08:31:11.927Z,5.60
2023-02-13T08:33:39.727Z,5.60
2023-02-13T08:36:06.987Z,5.50
2023-02-13T08:38:33.971Z,5.50
2023-02-13T08:41:00.680Z,5.40
2023-02-13T08:43:27.441Z,5.40
2023-02-13T08:45:54.294Z,5.50
2023-02-13T08:48:21.035Z,5.60
2023-02-13T08:50:47.703Z,5.60
2023-02-13T08:53:14.357Z,5.60
2023-02-13T08:55:41.074Z,5.50
2023-02-13T08:58:07.747Z,5.50
2023-02-13T09:00:34.424Z,5.30
2023-02-13T09:03:02.610Z,5.40
2023-02-13T09:05:31.642Z,5.50
2023-02-13T09:08:05.167Z,5.60
2023-02-13T09:10:32.836Z,5.60
2023-02-13T09:13:01.230Z,5.70
2023-02-13T09:15:27.928Z,5.70
2023-02-13T09:17:54.631Z,5.70
2023-02-13T09:20:21.487Z,5.80
2023-02-13T09:22:48.204Z,5.90
2023-02-13T09:25:15.055Z,5.90
2023-02-13T09:27:42.081Z,6.00
2023-02-13T09:30:09.933Z,6.00
2023-02-13T09:32:37.747Z,6.00
2023-02-13T09:35:06.563Z,6.00
2023-02-13T09:37:33.363Z,6.10
2023-02-13T09:40:00.070Z,6.20
2023-02-13T09:42:31.569Z,6.30
2023-02-13T09:45:01.655Z,6.30
2023-02-13T09:47:41.294Z,6.30
2023-02-13T09:50:11.008Z,6.40
2023-02-13T09:52:39.002Z,6.30
2023-02-13T09:55:17.582Z,6.20
2023-02-13T09:58:01.515Z,6.30
2023-02-13T10:00:42.988Z,6.30
2023-02-13T10:03:12.790Z,6.40
2023-02-13T10:06:04.718Z,6.50
2023-02-13T10:08:39.291Z,6.50
2023-02-13T10:11:44.146Z,6.50
2023-02-13T10:14:18.553Z,6.50
2023-02-13T10:16:45.194Z,6.50
2023-02-13T10:19:36.835Z,6.60
2023-02-13T10:22:18.540Z,6.80
2023-02-13T10:25:12.300Z,6.60
2023-02-13T10:27:43.348Z,6.50
2023-02-13T10:30:31.755Z,6.50
2023-02-13T10:33:19.681Z,6.50
2023-02-13T10:36:03.146Z,6.50
2023-02-13T10:38:32.651Z,6.50
2023-02-13T10:41:06.507Z,6.70
2023-02-13T10:43:59.067Z,6.30
2023-02-13T10:46:33.498Z,6.50
2023-02-13T10:49:51.383Z,6.60
2023-02-13T10:52:43.601Z,6.80
2023-02-13T10:55:39.170Z,6.90
2023-02-13T10:58:20.299Z,6.90
2023-02-13T11:01:02.758Z,7.00
2023-02-13T11:03:30.667Z,7.10
2023-02-13T11:05:59.524Z,7.00
2023-02-13T11:08:26.393Z,6.90
2023-02-13T11:10:53.070Z,6.90
2023-02-13T11:13:25.417Z,6.90
2023-02-13T11:16:07.905Z,7.00
2023-02-13T11:18:41.364Z,7.00
2023-02-13T11:21:18.557Z,7.00
2023-02-13T11:23:57.425Z,7.00
2023-02-13T11:26:34.846Z,7.20
2023-02-13T11:29:06.565Z,7.20
2023-02-13T11:31:35.753Z,7.20
2023-02-13T11:34:29.268Z,7.30
2023-02-13T11:37:17.576Z,7.30
2023-02-13T11:39:46.708Z,7.40
2023-02-13T11:42:16.299Z,7.40
2023-02-13T11:44:48.323Z,7.50
2023-02-13T11:47:16.052Z,7.50
2023-02-13T11:49:47.277Z,7.50
2023-02-13T11:52:27.152Z,7.60
2023-02-13T11:55:44.375Z,7.50
2023-02-13T11:58:11.109Z,7.60
2023-02-13T12:00:40.394Z,7.50
2023-02-13T12:03:22.579Z,7.60
2023-02-13T12:06:15.719Z,7.50
2023-02-13T12:08:45.763Z,7.70
2023-02-13T12:11:27.075Z,7.80
2023-02-13T12:13:55.105Z,7.80
2023-02-13T12:16:30.317Z,7.90
2023-02-13T12:19:01.285Z,7.90
2023-02-13T12:21:59.805Z,7.90
2023-02-13T12:25:02.119Z,8.00
2023-02-13T12:28:07.628Z,8.10
2023-02-13T12:30:41.009Z,8.10
2023-02-13T12:33:33.080Z,8.10
2023-02-13T12:36:10.102Z,8.10
2023-02-13T12:38:43.027Z,8.20
2023-02-13T12:41:38.386Z,8.20
2023-02-13T12:44:33.671Z,8.10
2023-02-13T12:47:05.846Z,8.10
2023-02-13T12:49:51.278Z,8.00
2023-02-13T12:52:20.652Z,8.10
2023-02-13T12:55:02.755Z,8.20
2023-02-13T12:57:57.492Z,8.30
2023-02-13T13:00:42.970Z,8.30
2023-02-13T13:03:39.663Z,8.40
2023-02-13T13:06:21.422Z,8.50
2023-02-13T13:09:00.004Z,8.40
2023-02-13T13:11:41.900Z,8.50
2023-02-13T13:14:20.310Z,8.10
2023-02-13T13:17:14.815Z,8.10
2023-02-13T13:20:00.534Z,8.10
2023-02-13T13:22:37.449Z,8.10
2023-02-13T13:25:22.792Z,8.20
2023-02-13T13:27:53.679Z,8.30
2023-02-13T13:30:36.150Z,8.40
2023-02-13T13:33:16.711Z,8.50
2023-02-13T13:36:16.300Z,8.40
2023-02-13T13:39:16.543Z,8.30
2023-02-13T13:42:00.969Z,8.30
2023-02-13T13:44:50.246Z,8.40
2023-02-13T13:47:41.932Z,8.40
2023-02-13T13:50:27.503Z,8.40
2023-02-13T13:53:15.648Z,8.50
2023-02-13T13:55:56.151Z,8.40
2023-02-13T13:58:24.011Z,8.20
2023-02-13T14:01:38.930Z,8.20
2023-02-13T14:04:34.363Z,8.20
2023-02-13T14:07:00.983Z,8.30
2023-02-13T14:09:27.625Z,8.40
2023-02-13T14:11:58.483Z,8.40
2023-02-13T14:14:28.198Z,8.50
2023-02-13T14:16:57.511Z,8.50
2023-02-13T14:19:26.025Z,8.40
2023-02-13T14:21:53.542Z,8.30
2023-02-13T14:24:22.329Z,8.40
2023-02-13T14:27:05.694Z,8.50
2023-02-13T14:29:33.990Z,8.60
2023-02-13T14:32:03.803Z,8.80
2023-02-13T14:34:34.804Z,9.00
2023-02-13T14:37:24.437Z,9.20
2023-02-13T14:40:12.255Z,9.10
2023-02-13T14:42:40.109Z,9.00
2023-02-13T14:45:16.819Z,9.20
2023-02-13T14:47:53.396Z,8.60
2023-02-13T14:50:40.368Z,8.80
2023-02-13T14:53:16.000Z,9.30
2023-02-13T14:55:46.465Z,9.70
2023-02-13T14:58:20.947Z,10.20
2023-02-13T15:00:50.366Z,10.60
2023-02-13T15:03:19.974Z,10.60
2023-02-13T15:05:52.493Z,11.00
2023-02-13T15:08:29.930Z,11.30
2023-02-13T15:10:57.731Z,11.60
2023-02-13T15:13:33.847Z,11.80
2023-02-13T15:16:12.118Z,11.90
2023-02-13T15:18:43.400Z,12.00
2023-02-13T15:21:16.967Z,11.90
2023-02-13T15:23:48.900Z,11.70
2023-02-13T15:26:26.271Z,11.60
2023-02-13T15:29:00.296Z,11.70
2023-02-13T15:31:33.046Z,11.50
2023-02-13T15:34:01.125Z,11.20
2023-02-13T15:36:36.416Z,11.00
2023-02-13T15:39:09.559Z,10.60
2023-02-13T15:41:40.848Z,10.30
2023-02-13T15:44:07.643Z,10.10
2023-02-13T15:46:36.573Z,9.70
2023-02-13T15:49:17.979Z,9.50
2023-02-13T15:51:45.301Z,9.10
2023-02-13T15:54:33.103Z,8.90
2023-02-13T15:57:04.264Z,8.80
2023-02-13T15:59:39.466Z,8.60
2023-02-13T16:02:14.680Z,8.30
2023-02-13T16:04:42.174Z,8.10
2023-02-13T16:07:14.051Z,7.90
2023-02-13T16:09:41.168Z,7.70
2023-02-13T16:12:22.860Z,7.40
2023-02-13T16:14:52.208Z,7.30
2023-02-13T16:17:34.773Z,7.10
2023-02-13T16:20:08.579Z,6.90
2023-02-13T16:22:45.365Z,6.60
2023-02-13T16:25:35.801Z,6.50
2023-02-13T16:28:14.208Z,6.30
2023-02-13T16:30:43.703Z,6.20
2023-02-13T16:33:16.535Z,5.90
2023-02-13T16:36:01.703Z,5.80
2023-02-13T16:38:33.226Z,5.60
2023-02-13T16:41:05.769Z,5.60
2023-02-13T16:43:41.441Z,5.40
2023-02-13T16:46:16.340Z,5.30
2023-02-13T16:48:44.633Z,5.30
2023-02-13T16:51:11.719Z,5.20
2023-02-13T16:53:39.512Z,4.90
2023-02-13T16:56:11.255Z,4.80
2023-02-13T16:58:37.953Z,4.70
2023-02-13T17:01:05.367Z,4.60
2023-02-13T17:03:32.838Z,4.70
2023-02-13T17:06:03.354Z,4.70
2023-02-13T17:08:31.956Z,4.70
2023-02-13T17:11:06.883Z,4.60
2023-02-13T17:13:34.241Z,4.50
2023-02-13T17:16:00.984Z,4.40
2023-02-13T17:18:27.747Z,4.40
2023-02-13T17:20:54.998Z,4.30
2023-02-13T17:23:24.426Z,4.30
2023-02-13T17:25:53.659Z,4.30
2023-02-13T17:28:24.196Z,4.30
2023-02-13T17:30:53.991Z,4.30
2023-02-13T17:33:26.384Z,4.30
2023-02-13T17:35:54.158Z,4.20
2023-02-13T17:38:21.174Z,4.20
2023-02-13T17:40:48.682Z,4.20
2023-02-13T17:43:17.519Z,4.10
2023-02-13T17:45:45.604Z,4.00
2023-02-13T17:48:12.247Z,4.10
2023-02-13T17:50:39.142Z,4.00
2023-02-13T17:53:18.838Z,3.90
2023-02-13T17:55:45.487Z,3.90
2023-02-13T17:58:12.116Z,3.90
2023-02-13T18:00:38.800Z,3.80
2023-02-13T18:03:05.541Z,3.80
2023-02-13T18:05:33.120Z,3.70
2023-02-13T18:08:02.594Z,3.60
2023-02-13T18:10:31.735Z,3.40
2023-02-13T18:13:03.951Z,3.20
2023-02-13T18:15:35.858Z,3.20
2023-02-13T18:18:02.697Z,3.20
2023-02-13T18:20:29.354Z,3.30
2023-02-13T18:22:56.031Z,3.30
2023-02-13T18:25:23.580Z,3.20
2023-02-13T18:27:50.895Z,3.20
2023-02-13T18:30:19.763Z,3.20
2023-02-13T18:32:50.871Z,3.10
2023-02-13T18:35:18.786Z,3.10
2023-02-13T18:37:45.494Z,3.20
2023-02-13T18:40:14.844Z,3.10
2023-02-13T18:42:41.443Z,3.20
2023-02-13T18:45:08.525Z,3.20
2023-02-13T18:47:35.144Z,3.20
2023-02-13T18:50:01.740Z,3.10
2023-02-13T18:52:28.390Z,3.20
2023-02-13T18:54:55.548Z,3.30
2023-02-13T18:57:22.285Z,3.30
2023-02-13T18:59:48.894Z,3.30
2023-02-13T19:02:15.561Z,3.30
2023-02-13T19:04:42.384Z,3.30
2023-02-13T19:07:08.999Z,3.40
2023-02-13T19:09:39.938Z,3.50
2023-02-13T19:12:07.414Z,3.50
2023-02-13T19:14:34.112Z,3.30
2023-02-13T19:17:00.788Z,3.20
2023-02-13T19:19:27.642Z,3.30
2023-02-13T19:21:54.340Z,3.30
2023-02-13T19:24:20.953Z,3.60
2023-02-13T19:26:47.569Z,3.40
2023-02-13T19:29:14.228Z,3.50
2023-02-13T19:31:41.410Z,3.50
2023-02-13T19:34:08.202Z,3.40
2023-02-13T19:36:34.981Z,3.60
2023-02-13T19:39:04.387Z,3.80
2023-02-13T19:41:32.730Z,4.00
2023-02-13T19:44:00.339Z,4.00
2023-02-13T19:46:31.632Z,4.10
2023-02-13T19:48:59.158Z,3.90
2023-02-13T19:51:28.390Z,3.90
2023-02-13T19:53:57.520Z,4.00
2023-02-13T19:56:24.627Z,4.20
2023-02-13T19:58:51.275Z,4.10
2023-02-13T20:01:20.825Z,4.10
2023-02-13T20:03:48.986Z,4.20
2023-02-13T20:06:22.447Z,4.10
2023-02-13T20:08:49.654Z,4.20
2023-02-13T20:11:17.974Z,4.20
2023-02-13T20:13:44.606Z,4.30
2023-02-13T20:16:14.715Z,4.40
2023-02-13T20:18:41.764Z,4.40
2023-02-13T20:21:13.890Z,4.40
2023-02-13T20:23:41.659Z,4.50
2023-02-13T20:26:13.846Z,4.40
2023-02-13T20:28:41.695Z,4.30
2023-02-13T20:31:13.748Z,4.40
2023-02-13T20:33:40.566Z,4.50
2023-02-13T20:36:22.016Z,4.50
2023-02-13T20:38:50.449Z,4.40
2023-02-13T20:41:23.141Z,4.50
2023-02-13T20:43:49.798Z,4.50
2023-02-13T20:46:17.368Z,4.60
2023-02-13T20:48:46.850Z,4.60
2023-02-13T20:51:14.674Z,4.50
2023-02-13T20:53:42.169Z,4.50
2023-02-13T20:56:15.256Z,4.60
2023-02-13T20:58:43.338Z,4.60
2023-02-13T21:01:18.587Z,4.60
2023-02-13T21:03:47.805Z,4.70
2023-02-13T21:06:14.491Z,4.60
2023-02-13T21:08:43.593Z,4.60
2023-02-13T21:11:10.262Z,4.60
2023-02-13T21:13:37.063Z,4.60
2023-02-13T21:16:13.296Z,4.60
2023-02-13T21:18:41.182Z,4.60
2023-02-13T21:21:10.011Z,4.60
2023-02-13T21:23:37.148Z,4.60
2023-02-13T21:26:10.950Z,4.70
2023-02-13T21:28:38.564Z,4.60
2023-02-13T21:31:10.638Z,4.60
2023-02-13T21:33:37.542Z,4.30
2023-02-13T21:36:06.906Z,4.10
2023-02-13T21:38:34.792Z,4.00
2023-02-13T21:41:05.450Z,3.70
2023-02-13T21:43:37.378Z,3.70
2023-02-13T21:46:18.875Z,3.60
2023-02-13T21:48:46.713Z,3.70
2023-02-13T21:51:18.803Z,3.90
2023-02-13T21:53:47.220Z,3.80
2023-02-13T21:56:16.232Z,3.60
2023-02-13T21:58:44.201Z,3.70
2023-02-13T22:01:25.577Z,3.80
2023-02-13T22:04:00.813Z,3.80
2023-02-13T22:06:29.354Z,3.90
2023-02-13T22:08:57.999Z,4.00
2023-02-13T22:11:27.084Z,4.10
2023-02-13T22:13:59.956Z,4.10
2023-02-13T22:16:26.774Z,4.00
2023-02-13T22:18:54.373Z,4.00
2023-02-13T22:21:24.044Z,3.90
2023-02-13T22:23:51.051Z,3.90
2023-02-13T22:26:29.807Z,4.00
2023-02-13T22:29:00.682Z,4.00
2023-02-13T22:31:28.051Z,4.00
2023-02-13T22:34:03.493Z,4.00
2023-02-13T22:36:35.354Z,4.00
2023-02-13T22:39:02.075Z,3.80
2023-02-13T22:41:29.017Z,3.60
2023-02-13T22:43:55.723Z,3.70
2023-02-13T22:46:25.618Z,3.60
2023-02-13T22:48:53.205Z,3.60
2023-02-13T22:51:32.054Z,3.60
2023-02-13T22:53:59.237Z,3.60
2023-02-13T22:56:28.321Z,3.60
2023-02-13T22:58:55.467Z,3.70
2023-02-13T23:01:24.325Z,3.60
2023-02-13T23:03:51.397Z,3.60
2023-02-13T23:06:19.198Z,3.50
2023-02-13T23:08:46.031Z,3.60
2023-02-13T23:11:34.182Z,3.50
2023-02-13T23:14:01.367Z,3.40
2023-02-13T23:16:28.407Z,3.40
2023-02-13T23:18:56.589Z,3.20
2023-02-13T23:21:25.053Z,3.20
2023-02-13T23:23:51.982Z,3.20
2023-02-13T23:26:18.723Z,3.30
2023-02-13T23:28:45.608Z,3.30
2023-02-13T23:31:12.613Z,3.30
2023-02-13T23:33:39.351Z,3.20
2023-02-13T23:36:06.676Z,3.20
2023-02-13T23:38:33.383Z,3.30
2023-02-13T23:41:07.757Z,3.30
2023-02-13T23:43:35.041Z,3.20
2023-02-13T23:46:06.297Z,3.10
2023-02-13T23:48:33.634Z,3.20
2023-02-13T23:51:00.953Z,3.20
2023-02-13T23:53:28.021Z,3.20
2023-02-13T23:55:55.003Z,3.30
2023-02-13T23:58:21.675Z,3.30
